createdAt,value
2019-01-20T00:00:30.336Z,15.03
2019-01-20T00:02:59.042Z,13.60
2019-01-20T00:05:27.949Z,13.90
2019-01-20T00:07:56.614Z,14.15
2019-01-20T00:10:25.248Z,14.40
2019-01-20T00:12:53.873Z,13.65
2019-01-20T00:15:22.629Z,14.50
2019-01-20T00:17:51.308Z,15.35
2019-01-20T00:20:19.928Z,13.98
2019-01-20T00:22:48.732Z,13.13
2019-01-20T00:25:17.444Z,15.72
2019-01-20T00:27:46.090Z,15.70
2019-01-20T00:30:16.992Z,15.60
2019-01-20T00:32:45.645Z,15.18
2019-01-20T00:35:15.807Z,16.32
2019-01-20T00:37:44.564Z,16.02
2019-01-20T00:40:15.474Z,15.60
2019-01-20T00:42:44.763Z,15.80
2019-01-20T00:45:17.907Z,16.48
2019-01-20T00:47:46.626Z,17.00
2019-01-20T00:50:16.428Z,15.43
2019-01-20T00:52:45.298Z,17.10
2019-01-20T00:55:16.296Z,16.77
2019-01-20T00:57:45.316Z,17.52
2019-01-20T01:00:19.728Z,16.97
2019-01-20T01:02:48.709Z,18.02
2019-01-20T01:05:18.909Z,19.15
2019-01-20T01:07:47.944Z,15.50
2019-01-20T01:10:16.649Z,15.65
2019-01-20T01:12:45.765Z,15.63
2019-01-20T01:15:14.630Z,15.25
2019-01-20T01:17:43.486Z,14.83
2019-01-20T01:20:14.986Z,15.08
2019-01-20T01:22:43.666Z,14.63
2019-01-20T01:25:14.082Z,14.47
2019-01-20T01:27:42.829Z,13.90
2019-01-20T01:30:19.966Z,14.68
2019-01-20T01:32:48.811Z,11.97
2019-01-20T01:35:17.531Z,13.58
2019-01-20T01:37:46.257Z,13.53
2019-01-20T01:40:19.500Z,13.40
2019-01-20T01:42:48.915Z,11.65
2019-01-20T01:45:19.224Z,13.20
2019-01-20T01:47:47.924Z,13.10
2019-01-20T01:50:17.641Z,13.10
2019-01-20T01:52:46.350Z,12.95
2019-01-20T01:55:15.282Z,13.18
2019-01-20T01:57:43.979Z,12.33
2019-01-20T02:00:15.794Z,11.15
2019-01-20T02:02:45.223Z,13.70
2019-01-20T02:05:14.253Z,13.00
2019-01-20T02:07:42.882Z,12.68
2019-01-20T02:10:20.104Z,12.58
2019-01-20T02:12:49.924Z,13.10
2019-01-20T02:15:20.133Z,12.15
2019-01-20T02:17:49.541Z,11.95
2019-01-20T02:20:20.607Z,12.25
2019-01-20T02:22:49.330Z,13.22
2019-01-20T02:25:18.063Z,13.70
2019-01-20T02:27:46.779Z,13.35
2019-01-20T02:30:24.272Z,13.65
2019-01-20T02:32:52.832Z,13.50
2019-01-20T02:35:21.494Z,12.85
2019-01-20T02:37:50.135Z,12.23
2019-01-20T02:40:18.970Z,13.20
2019-01-20T02:42:47.626Z,12.37
2019-01-20T02:45:16.767Z,14.07
2019-01-20T02:47:45.489Z,11.12
2019-01-20T02:50:16.889Z,13.08
2019-01-20T02:52:45.841Z,12.80
2019-01-20T02:55:14.938Z,12.82
2019-01-20T02:57:43.638Z,13.95
2019-01-20T03:00:22.979Z,15.98
2019-01-20T03:02:51.782Z,16.20
2019-01-20T03:05:21.586Z,15.30
2019-01-20T03:07:50.290Z,13.18
2019-01-20T03:10:19.031Z,12.13
2019-01-20T03:12:47.672Z,12.82
2019-01-20T03:15:16.400Z,12.58
2019-01-20T03:17:45.099Z,12.90
2019-01-20T03:20:20.031Z,10.43
2019-01-20T03:22:49.693Z,12.63
2019-01-20T03:25:19.618Z,12.28
2019-01-20T03:27:48.334Z,13.68
2019-01-20T03:30:19.136Z,17.20
2019-01-20T03:32:47.994Z,15.88
2019-01-20T03:35:19.308Z,17.32
2019-01-20T03:37:48.010Z,18.65
2019-01-20T03:40:18.650Z,16.57
2019-01-20T03:42:47.349Z,15.60
2019-01-20T03:45:18.279Z,15.48
2019-01-20T03:47:46.982Z,14.33
2019-01-20T03:50:17.210Z,13.20
2019-01-20T03:52:46.431Z,13.95
2019-01-20T03:55:16.758Z,14.23
2019-01-20T03:57:45.481Z,14.13
2019-01-20T04:00:19.371Z,14.28
2019-01-20T04:02:50.027Z,12.73
2019-01-20T04:05:20.246Z,14.38
2019-01-20T04:07:48.967Z,13.18
2019-01-20T04:10:17.646Z,13.08
2019-01-20T04:12:46.278Z,13.90
2019-01-20T04:15:16.090Z,13.18
2019-01-20T04:17:45.118Z,12.03
2019-01-20T04:20:15.393Z,12.63
2019-01-20T04:22:44.248Z,12.98
2019-01-20T04:25:17.623Z,11.95
2019-01-20T04:27:46.453Z,13.68
2019-01-20T04:30:17.433Z,13.45
2019-01-20T04:32:46.234Z,13.80
2019-01-20T04:35:16.254Z,11.30
2019-01-20T04:37:45.072Z,13.48
2019-01-20T04:40:21.525Z,13.08
2019-01-20T04:42:50.327Z,13.30
2019-01-20T04:45:19.145Z,12.47
2019-01-20T04:47:47.928Z,14.50
2019-01-20T04:50:21.609Z,13.53
2019-01-20T04:53:09.639Z,12.68
2019-01-20T04:55:38.385Z,13.08
2019-01-20T04:58:07.376Z,14.55
2019-01-20T05:00:36.191Z,15.93
2019-01-20T05:03:05.051Z,15.50
2019-01-20T05:05:33.851Z,14.25
2019-01-20T05:08:02.630Z,12.50
2019-01-20T05:10:31.383Z,12.78
2019-01-20T05:13:00.132Z,12.82
2019-01-20T05:15:28.906Z,12.37
2019-01-20T05:17:57.664Z,12.68
2019-01-20T05:20:26.424Z,12.05
2019-01-20T05:22:55.014Z,14.68
2019-01-20T05:25:24.779Z,14.65
2019-01-20T05:27:53.466Z,14.68
2019-01-20T05:30:42.926Z,13.45
2019-01-20T05:33:11.498Z,13.20
2019-01-20T05:35:40.067Z,14.15
2019-01-20T05:38:08.684Z,12.88
2019-01-20T05:40:37.235Z,13.93
2019-01-20T05:43:05.831Z,13.38
2019-01-20T05:45:34.547Z,15.05
2019-01-20T05:48:03.151Z,12.20
2019-01-20T05:50:31.711Z,13.83
2019-01-20T05:53:00.376Z,13.13
2019-01-20T05:55:29.005Z,13.98
2019-01-20T05:57:57.594Z,14.93
2019-01-20T06:00:28.376Z,13.58
2019-01-20T06:02:57.045Z,11.88
2019-01-20T06:05:25.675Z,13.30
2019-01-20T06:07:54.519Z,12.75
2019-01-20T06:10:23.234Z,12.85
2019-01-20T06:12:54.168Z,13.20
2019-01-20T06:15:23.214Z,11.80
2019-01-20T06:17:51.908Z,11.85
2019-01-20T06:20:20.706Z,13.75
2019-01-20T06:22:49.363Z,15.70
2019-01-20T06:25:18.257Z,14.15
2019-01-20T06:27:47.058Z,14.43
2019-01-20T06:30:43.870Z,14.68
2019-01-20T06:33:12.639Z,15.10
2019-01-20T06:35:41.329Z,16.32
2019-01-20T06:38:10.042Z,17.10
2019-01-20T06:40:38.793Z,16.07
2019-01-20T06:43:07.562Z,17.05
2019-01-20T06:45:36.252Z,16.27
2019-01-20T06:48:04.943Z,15.83
2019-01-20T06:50:33.686Z,19.25
2019-01-20T06:53:02.268Z,20.77
2019-01-20T06:55:31.965Z,20.00
2019-01-20T06:58:03.209Z,19.10
2019-01-20T07:00:31.811Z,17.42
2019-01-20T07:03:00.403Z,18.07
2019-01-20T07:05:29.079Z,15.13
2019-01-20T07:07:57.724Z,14.98
2019-01-20T07:10:26.441Z,16.17
2019-01-20T07:12:55.003Z,15.08
2019-01-20T07:15:24.260Z,13.98
2019-01-20T07:17:52.901Z,16.70
2019-01-20T07:20:21.658Z,16.07
2019-01-20T07:22:50.369Z,14.95
2019-01-20T07:25:19.043Z,15.80
2019-01-20T07:27:47.686Z,15.93
2019-01-20T07:30:18.900Z,17.35
2019-01-20T07:32:47.635Z,17.55
2019-01-20T07:35:16.476Z,19.48
2019-01-20T07:37:45.244Z,19.70
2019-01-20T07:40:16.328Z,19.77
2019-01-20T07:42:46.087Z,29.67
2019-01-20T07:45:16.356Z,26.97
2019-01-20T07:47:45.119Z,22.58
2019-01-20T07:50:19.170Z,20.05
2019-01-20T07:52:47.999Z,22.75
2019-01-20T07:55:16.740Z,22.93
2019-01-20T07:57:45.558Z,25.02
2019-01-20T08:00:20.554Z,23.50
2019-01-20T08:02:49.207Z,25.30
2019-01-20T08:05:18.583Z,26.07
2019-01-20T08:07:47.253Z,25.02
2019-01-20T08:10:18.650Z,26.42
2019-01-20T08:12:48.725Z,27.37
2019-01-20T08:15:17.885Z,29.00
2019-01-20T08:17:46.615Z,26.25
2019-01-20T08:20:17.786Z,27.80
2019-01-20T08:22:46.538Z,29.67
2019-01-20T08:25:17.106Z,31.33
2019-01-20T08:27:45.819Z,30.88
2019-01-20T08:30:33.825Z,34.35
2019-01-20T08:33:02.395Z,35.25
2019-01-20T08:35:31.010Z,32.42
2019-01-20T08:37:59.671Z,31.87
2019-01-20T08:40:29.262Z,34.40
2019-01-20T08:42:57.879Z,43.28
2019-01-20T08:45:38.538Z,33.95
2019-01-20T08:48:18.976Z,30.80
2019-01-20T08:50:47.597Z,32.17
2019-01-20T08:53:16.243Z,34.98
2019-01-20T08:55:44.963Z,33.48
2019-01-20T08:58:13.643Z,34.25
2019-01-20T09:00:42.466Z,34.95
2019-01-20T09:03:11.237Z,32.95
2019-01-20T09:05:40.026Z,35.00
2019-01-20T09:08:08.876Z,32.08
2019-01-20T09:10:37.700Z,32.10
2019-01-20T09:13:08.138Z,37.70
2019-01-20T09:15:36.779Z,37.10
2019-01-20T09:18:05.548Z,42.13
2019-01-20T09:20:34.396Z,38.17
2019-01-20T09:23:03.059Z,38.78
2019-01-20T09:25:31.710Z,42.43
2019-01-20T09:28:03.359Z,45.80
2019-01-20T09:30:32.076Z,39.05
2019-01-20T09:33:00.737Z,37.35
2019-01-20T09:35:29.382Z,36.38
2019-01-20T09:37:58.054Z,33.45
2019-01-20T09:40:26.629Z,32.58
2019-01-20T09:42:55.242Z,33.08
2019-01-20T09:45:31.850Z,31.70
2019-01-20T09:48:00.586Z,33.40
2019-01-20T09:50:29.299Z,36.17
2019-01-20T09:52:57.904Z,32.85
2019-01-20T09:55:26.552Z,32.25
2019-01-20T09:57:55.190Z,32.75
2019-01-20T10:00:26.782Z,30.60
2019-01-20T10:02:55.427Z,29.52
2019-01-20T10:05:24.098Z,31.55
2019-01-20T10:07:52.669Z,32.20
2019-01-20T10:10:21.516Z,29.50
2019-01-20T10:12:50.090Z,31.70
2019-01-20T10:15:18.774Z,31.57
2019-01-20T10:17:47.512Z,32.85
2019-01-20T10:20:25.395Z,28.60
2019-01-20T10:22:54.672Z,28.60
2019-01-20T10:25:23.406Z,29.85
2019-01-20T10:27:52.054Z,28.95
2019-01-20T10:30:23.871Z,28.62
2019-01-20T10:32:52.762Z,28.17
2019-01-20T10:35:23.004Z,30.05
2019-01-20T10:37:52.018Z,32.25
2019-01-20T10:40:20.627Z,33.70
2019-01-20T10:42:49.205Z,31.30
2019-01-20T10:45:17.938Z,30.50
2019-01-20T10:47:46.520Z,31.42
2019-01-20T10:50:17.862Z,32.70
2019-01-20T10:52:46.786Z,29.82
2019-01-20T10:55:15.473Z,30.20
2019-01-20T10:57:44.127Z,29.37
2019-01-20T11:00:21.655Z,29.53
2019-01-20T11:02:50.370Z,28.37
2019-01-20T11:05:24.955Z,33.17
2019-01-20T11:07:49.540Z,29.43
2019-01-20T11:10:18.265Z,31.70
2019-01-20T11:12:46.907Z,26.53
2019-01-20T11:15:17.404Z,27.73
2019-01-20T11:17:46.118Z,25.45
2019-01-20T11:20:17.857Z,21.93
2019-01-20T11:22:46.577Z,33.97
2019-01-20T11:25:30.197Z,24.50
2019-01-20T11:27:58.759Z,23.30
2019-01-20T11:30:27.423Z,23.03
2019-01-20T11:32:55.997Z,24.50
2019-01-20T11:35:24.585Z,20.73
2019-01-20T11:37:53.298Z,24.07
2019-01-20T11:40:21.894Z,21.07
2019-01-20T11:42:50.717Z,21.13
2019-01-20T11:45:21.950Z,22.43
2019-01-20T11:53:19.620Z,23.30
2019-01-20T12:04:08.391Z,21.93
2019-01-20T12:06:37.114Z,23.43
2019-01-20T12:09:09.457Z,26.97
2019-01-20T12:11:38.125Z,27.10
2019-01-20T12:14:06.754Z,26.50
2019-01-20T12:16:35.419Z,24.90
2019-01-20T12:19:04.226Z,25.30
2019-01-20T12:21:32.820Z,25.73
2019-01-20T12:24:01.461Z,24.50
2019-01-20T12:26:30.082Z,25.93
2019-01-20T12:28:58.631Z,26.03
2019-01-20T12:31:27.295Z,27.20
2019-01-20T12:33:55.935Z,26.20
2019-01-20T12:36:24.598Z,26.77
2019-01-20T12:38:53.310Z,25.90
2019-01-20T12:41:22.153Z,28.20
2019-01-20T12:43:50.885Z,28.13
2019-01-20T12:46:19.559Z,28.73
2019-01-20T12:48:48.127Z,28.73
2019-01-20T12:51:16.742Z,29.65
2019-01-20T12:53:46.901Z,29.50
2019-01-20T12:56:15.472Z,29.33
2019-01-20T12:58:44.138Z,32.00
2019-01-20T13:01:12.716Z,38.08
2019-01-20T13:03:42.067Z,34.27
2019-01-20T13:06:10.674Z,34.65
2019-01-20T13:08:39.347Z,30.40
2019-01-20T13:11:08.011Z,31.75
2019-01-20T13:13:36.684Z,30.63
2019-01-20T13:16:05.498Z,32.85
2019-01-20T13:18:34.102Z,32.23
2019-01-20T13:21:03.380Z,30.47
2019-01-20T13:23:31.993Z,31.47
2019-01-20T13:26:00.572Z,31.87
2019-01-20T13:28:29.242Z,37.30
2019-01-20T13:30:57.890Z,35.45
2019-01-20T13:33:26.495Z,34.27
2019-01-20T13:35:55.062Z,31.27
2019-01-20T13:38:23.658Z,34.80
2019-01-20T13:40:55.651Z,36.00
2019-01-20T13:43:24.249Z,36.98
2019-01-20T13:45:52.899Z,33.00
2019-01-20T13:48:21.498Z,27.82
2019-01-20T13:50:50.079Z,35.70
2019-01-20T13:53:18.747Z,34.48
2019-01-20T13:55:47.327Z,33.18
2019-01-20T13:58:15.927Z,32.17
2019-01-20T14:00:44.580Z,31.70
2019-01-20T14:03:13.174Z,35.40
2019-01-20T14:05:41.819Z,31.45
2019-01-20T14:08:10.489Z,31.77
2019-01-20T14:10:39.128Z,31.10
2019-01-20T14:13:07.862Z,38.83
2019-01-20T14:15:36.434Z,35.60
2019-01-20T14:18:05.078Z,35.40
2019-01-20T14:20:33.676Z,36.25
2019-01-20T14:23:02.314Z,34.90
2019-01-20T14:25:31.449Z,37.05
2019-01-20T14:28:00.037Z,36.05
2019-01-20T14:30:31.701Z,37.48
2019-01-20T14:33:00.346Z,30.70
2019-01-20T14:35:29.125Z,31.02
2019-01-20T14:37:57.739Z,34.75
2019-01-20T14:40:26.329Z,36.73
2019-01-20T14:42:54.893Z,36.83
2019-01-20T14:45:23.648Z,34.50
2019-01-20T14:47:52.462Z,32.20
2019-01-20T14:50:28.112Z,34.18
2019-01-20T14:52:56.875Z,40.45
2019-01-20T14:55:26.401Z,38.83
2019-01-20T14:57:55.210Z,37.50
2019-01-20T15:00:27.248Z,36.05
2019-01-20T15:02:55.963Z,34.40
2019-01-20T15:05:43.968Z,34.05
2019-01-20T15:08:12.606Z,38.33
2019-01-20T15:10:41.222Z,39.95
2019-01-20T15:13:09.885Z,42.33
2019-01-20T15:15:40.592Z,39.95
2019-01-20T15:18:09.362Z,48.20
2019-01-20T15:20:38.095Z,39.70
2019-01-20T15:23:06.808Z,39.53
2019-01-20T15:25:35.642Z,39.58
2019-01-20T15:28:05.357Z,38.70
2019-01-20T15:30:34.751Z,36.60
2019-01-20T15:33:05.219Z,35.73
2019-01-20T15:35:33.982Z,38.63
2019-01-20T15:38:02.559Z,36.35
2019-01-20T15:40:31.299Z,36.08
2019-01-20T15:43:00.052Z,39.73
2019-01-20T15:45:28.785Z,41.05
2019-01-20T15:47:57.597Z,39.78
2019-01-20T15:50:31.388Z,46.50
2019-01-20T15:53:01.761Z,47.30
2019-01-20T15:55:30.494Z,43.05
2019-01-20T15:58:00.043Z,38.92
2019-01-20T16:00:32.590Z,34.20
2019-01-20T16:03:01.301Z,32.08
2019-01-20T16:05:30.444Z,35.63
2019-01-20T16:07:59.108Z,34.85
2019-01-20T16:10:27.870Z,36.77
2019-01-20T16:12:56.639Z,34.70
2019-01-20T16:15:27.857Z,35.48
2019-01-20T16:17:56.600Z,35.15
2019-01-20T16:20:25.921Z,32.23
2019-01-20T16:22:54.582Z,32.90
2019-01-20T16:25:32.061Z,35.80
2019-01-20T16:28:00.723Z,34.92
2019-01-20T16:30:35.170Z,34.05
2019-01-20T16:33:04.156Z,33.38
2019-01-20T16:35:32.870Z,32.45
2019-01-20T16:38:22.318Z,34.70
2019-01-20T16:40:50.977Z,35.40
2019-01-20T16:43:19.696Z,39.67
2019-01-20T16:45:48.336Z,49.30
2019-01-20T16:48:17.001Z,60.35
2019-01-20T16:50:45.574Z,63.00
2019-01-20T16:53:14.250Z,58.02
2019-01-20T16:55:42.970Z,49.35
2019-01-20T16:58:11.630Z,44.00
2019-01-20T17:00:41.347Z,43.40
2019-01-20T17:03:10.086Z,37.60
2019-01-20T17:05:38.738Z,34.75
2019-01-20T17:08:07.473Z,44.50
2019-01-20T17:10:38.295Z,45.52
2019-01-20T17:13:07.931Z,56.83
2019-01-20T17:15:39.851Z,51.63
2019-01-20T17:18:10.103Z,47.60
2019-01-20T17:20:38.834Z,45.78
2019-01-20T17:23:07.706Z,48.35
2019-01-20T17:25:36.429Z,50.58
2019-01-20T17:28:05.551Z,53.80
2019-01-20T17:30:35.958Z,61.35
2019-01-20T17:33:06.319Z,55.52
2019-01-20T17:35:35.022Z,55.38
2019-01-20T17:38:06.734Z,46.05
2019-01-20T17:40:35.553Z,43.95
2019-01-20T17:43:05.085Z,40.52
2019-01-20T17:45:36.600Z,46.83
2019-01-20T17:48:05.454Z,42.70
2019-01-20T17:50:36.599Z,42.25
2019-01-20T17:53:06.834Z,49.38
2019-01-20T17:55:35.641Z,47.58
2019-01-20T17:58:04.782Z,55.15
2019-01-20T18:00:36.234Z,50.58
2019-01-20T18:03:06.457Z,48.13
2019-01-20T18:05:35.391Z,53.78
2019-01-20T18:08:04.231Z,50.78
2019-01-20T18:10:32.973Z,51.10
2019-01-20T18:13:01.687Z,48.50
2019-01-20T18:15:30.407Z,44.35
2019-01-20T18:17:59.068Z,45.83
2019-01-20T18:20:32.856Z,47.95
2019-01-20T18:23:01.759Z,62.15
2019-01-20T18:25:30.636Z,59.40
2019-01-20T18:27:59.414Z,45.80
2019-01-20T18:30:30.042Z,45.10
2019-01-20T18:32:58.855Z,39.65
2019-01-20T18:35:28.289Z,46.50
2019-01-20T18:37:57.005Z,47.30
2019-01-20T18:40:26.669Z,44.30
2019-01-20T18:42:55.392Z,48.87
2019-01-20T18:45:26.527Z,46.33
2019-01-20T18:47:55.240Z,54.58
2019-01-20T18:50:29.326Z,46.50
2019-01-20T18:52:58.030Z,40.98
2019-01-20T18:55:26.879Z,44.20
2019-01-20T18:57:55.538Z,40.58
2019-01-20T19:00:32.781Z,41.05
2019-01-20T19:03:01.427Z,39.80
2019-01-20T19:05:30.675Z,40.17
2019-01-20T19:07:59.375Z,39.05
2019-01-20T19:10:28.109Z,35.83
2019-01-20T19:12:56.763Z,42.33
2019-01-20T19:15:25.502Z,42.75
2019-01-20T19:17:54.211Z,40.65
2019-01-20T19:20:47.164Z,38.60
2019-01-20T19:23:15.737Z,41.95
2019-01-20T19:25:44.355Z,40.17
2019-01-20T19:28:12.976Z,40.88
2019-01-20T19:30:41.711Z,41.25
2019-01-20T19:33:10.282Z,43.78
2019-01-20T19:35:38.955Z,49.35
2019-01-20T19:38:07.606Z,48.15
2019-01-20T19:40:36.213Z,42.98
2019-01-20T19:43:04.838Z,41.30
2019-01-20T19:45:33.575Z,41.75
2019-01-20T19:48:02.302Z,44.08
2019-01-20T19:50:31.041Z,41.88
2019-01-20T19:52:59.686Z,44.00
2019-01-20T19:55:30.335Z,42.15
2019-01-20T19:57:59.043Z,43.78
2019-01-20T20:00:32.354Z,49.88
2019-01-20T20:03:01.066Z,52.35
2019-01-20T20:05:29.797Z,46.23
2019-01-20T20:07:58.586Z,44.10
2019-01-20T20:10:28.222Z,44.90
2019-01-20T20:12:57.550Z,44.40
2019-01-20T20:15:27.395Z,48.08
2019-01-20T20:17:56.501Z,45.52
2019-01-20T20:20:25.266Z,45.40
2019-01-20T20:22:53.977Z,44.13
2019-01-20T20:25:24.390Z,46.98
2019-01-20T20:28:13.852Z,45.70
2019-01-20T20:30:42.525Z,43.63
2019-01-20T20:33:11.174Z,42.67
2019-01-20T20:35:39.835Z,50.12
2019-01-20T20:38:08.649Z,47.23
2019-01-20T20:40:37.342Z,44.42
2019-01-20T20:43:06.116Z,40.75
2019-01-20T20:45:34.631Z,51.60
2019-01-20T20:48:03.228Z,55.65
2019-01-20T20:50:31.946Z,49.75
2019-01-20T20:53:00.614Z,48.73
2019-01-20T20:55:29.262Z,40.12
2019-01-20T20:57:58.002Z,54.73
2019-01-20T21:00:36.556Z,52.50
2019-01-20T21:03:08.435Z,47.38
2019-01-20T21:05:37.081Z,47.78
2019-01-20T21:08:06.017Z,48.83
2019-01-20T21:10:34.587Z,42.48
2019-01-20T21:13:03.247Z,42.80
2019-01-20T21:15:31.915Z,43.05
2019-01-20T21:18:00.524Z,49.35
2019-01-20T21:20:29.152Z,44.95
2019-01-20T21:22:57.763Z,48.70
2019-01-20T21:25:26.330Z,42.45
2019-01-20T21:27:54.927Z,43.92
2019-01-20T21:30:26.529Z,53.05
2019-01-20T21:32:55.245Z,42.67
2019-01-20T21:35:24.242Z,48.13
2019-01-20T21:37:52.921Z,43.15
2019-01-20T21:40:21.726Z,43.02
2019-01-20T21:42:50.474Z,49.15
2019-01-20T21:45:19.577Z,44.30
2019-01-20T21:47:48.250Z,44.60
2019-01-20T21:50:22.992Z,40.43
2019-01-20T21:52:51.683Z,38.40
2019-01-20T21:55:20.335Z,44.20
2019-01-20T21:57:49.066Z,41.18
2019-01-20T22:00:19.886Z,41.80
2019-01-20T22:02:48.633Z,39.83
2019-01-20T22:05:18.725Z,40.65
2019-01-20T22:07:47.468Z,46.88
2019-01-20T22:10:18.546Z,44.53
2019-01-20T22:12:47.404Z,42.20
2019-01-20T22:15:16.662Z,32.42
2019-01-20T22:17:46.105Z,38.08
2019-01-20T22:20:19.695Z,42.43
2019-01-20T22:22:48.430Z,43.40
2019-01-20T22:25:17.143Z,40.70
2019-01-20T22:27:45.839Z,40.80
2019-01-20T22:30:16.751Z,39.08
2019-01-20T22:32:56.613Z,42.58
2019-01-20T22:35:25.055Z,43.08
2019-01-20T22:37:53.714Z,40.58
2019-01-20T22:40:22.383Z,40.23
2019-01-20T22:42:51.030Z,41.23
2019-01-20T22:45:23.266Z,40.80
2019-01-20T22:47:51.919Z,40.55
2019-01-20T22:50:20.750Z,39.98
2019-01-20T22:52:49.502Z,41.33
2019-01-20T22:55:18.452Z,39.23
2019-01-20T22:57:47.369Z,39.65
2019-01-20T23:00:21.256Z,38.65
2019-01-20T23:02:50.034Z,34.95
2019-01-20T23:05:18.714Z,42.88
2019-01-20T23:07:47.346Z,40.38
2019-01-20T23:10:16.088Z,40.03
2019-01-20T23:12:44.726Z,42.60
2019-01-20T23:15:13.575Z,36.58
2019-01-20T23:17:42.219Z,40.30
2019-01-20T23:20:14.227Z,39.78
2019-01-20T23:22:42.883Z,41.05
2019-01-20T23:25:11.547Z,38.98
2019-01-20T23:27:40.190Z,42.05
2019-01-20T23:30:12.057Z,38.98
2019-01-20T23:32:40.634Z,41.45
2019-01-20T23:35:09.374Z,36.60
2019-01-20T23:37:38.014Z,37.85
2019-01-20T23:40:11.818Z,40.10
2019-01-20T23:42:40.567Z,37.85
2019-01-20T23:45:11.199Z,39.58
2019-01-20T23:47:39.846Z,41.40
2019-01-20T23:50:13.601Z,38.02
2019-01-20T23:52:42.329Z,37.35
2019-01-20T23:55:13.105Z,38.90
2019-01-20T23:57:41.750Z,39.73
